Accueil
METAR-TAF:

METAR-TAF

Aéroports :

Cerklje ob Krki, Slovénie

latitude: 45-53-59N, longitude: 15-30-55E, altitude: 157 m

Observation

Le bulletin a été fait il y a 33 minutes, à 22:30 UTC
Vent 2 kt de ouest/sud-ouest
Température 19°C
Humidité 94%
Pression 1014 hPa
Visibilité 10 km ou plus

METAR: LJCE 032230Z AUTO 24002KT 9999 NSC 19/18 Q1014

Heure: 01:03 (23:03 UTC)

Prévision

Le bulletin a été fait il y a 3 heures et 3 minutes, à 20:00 UTC
Prévision valable du 03 à 21 UTC au 04 à 06 UTC
Vent 2 kt de direction variable
Visibilité 10 km ou plus
pas de nuages en-dessous de 1500 mètres et pas de cumulonimbus.
Probabilité 30% :
Temporairement
du 04 à 00 UTC au 04 à 06 UTC
Visibilité: 4000 m
brume

TAF: LJCE 032000Z 0321/0406 VRB02KT CAVOK PROB30 TEMPO 0400/0406 4000 BR

Observations et prévisions météorologiques de plus de 4000 aéroports (messages METAR et TAF).

Les stations disponibles sont représentées par des disques jaunes et rouges sur la carte.

Passer la souris dessus pour voir le nom de la station.

Cliquer dessus pour voir les observations et prévisions météorologiques.

Pour changer de carte: cliquez sur les boutons verts avec une croix noire pour zoomer, sur le bouton vert avec un tiret pour effectuer un zoom arrière, ou sur les flèches vertes pour les cartes adjacentes.


METAR-TAF: